18FA weather

Amistad Central Heliport
Okeechobee, Florida, United States

Public forecast

Using degrees Fahrenheit for public forecast. Weather courtesy of forecast.io.

Closest aviation weather report (METAR) to Amistad Central Heliport

Closest report is Okeechobee County Airport, 8.6 nm (15.8 km) W. Retrieved 2019/10/23 11:35 UTC (0 seconds ago):

KOBE 231135Z AUTO 00000KT 7SM BKN005 22/21 A3000 RMK AO2

Closest aviation forecast (TAF) to Amistad Central Heliport

Closest forecast is St Lucie County International Airport, 23.2 nm (42.9 km) NE. Retrieved 2019/10/23 06:52 UTC (5 hours ago):

TAF KFPR 230549Z 2306/2406 30003KT P6SM FEW250 FM231400 03009KT P6SM SCT035 FM231700 04010KT P6SM VCSH BKN035 FM240100 03008KT P6SM VCSH BKN035